Terminal Aerodrome Forecast
Issued by NWS

Home | Current Version | Previous Version | Text Only | Print | Product List | Glossary On
Versions: 1 2 3 4 5 6 7 8 9 10 11 12 13 14 15
808
FTUS43 KGRR 081140
TAFLAN
TAF
KLAN 081140Z 0812/0912 26015G24KT P6SM -SHSN OVC020
     FM081600 27015G23KT 3SM -SHSN BLSN BR OVC020
     FM090800 29006KT 6SM -SN OVC025=

USA.gov is the U.S. government's official web portal to all federal, state and local government web resources and services.